ePrivacy and GPDR Cookie Consent by Cookie Consent
EmailTwitter


Observations de surface / France / LFBP (07610)

Régions: Québec | Canada | États-Unis | Europe | France | UK | Ailleurs
Station
Affichage
Infos & localisation pour LFBP (07610) | Aide pour décoder les METARs

Observations prises le 2024-04-21 à 04H00 UTC à PONT-LONG-UZEIN/, FR (LFBP)

Température: 5.0 Celsius

Point de rosée: 0.0 Celsius

Humidité relative: 70%

Vents: Nord-est à 2 km/h ou 1 noeuds.

Pression au niveau moyen de la mer: 102.00 kilopascals.

Observation METAR:

LFBP 210400Z AUTO 05001KT CAVOK 05/00 Q1020 NOSIG=